createdAt,value
2022-12-24T00:54:56.466Z,94692.00
2022-12-24T00:55:57.366Z,94688.00
2022-12-24T00:56:57.341Z,94688.00
2022-12-24T00:57:57.333Z,94692.00
2022-12-24T00:58:57.331Z,94692.00
2022-12-24T00:59:57.363Z,94690.00
2022-12-24T01:00:57.455Z,94686.00
2022-12-24T01:01:57.508Z,94690.00
2022-12-24T01:02:57.637Z,94695.00
2022-12-24T01:03:57.281Z,94701.00
2022-12-24T01:04:57.304Z,94701.00
2022-12-24T01:05:57.266Z,94701.00
2022-12-24T01:06:57.270Z,94697.00
2022-12-24T01:07:57.255Z,94697.00
2022-12-24T01:08:57.276Z,94701.00
2022-12-24T01:09:57.226Z,94705.00
2022-12-24T01:10:57.249Z,94707.00
2022-12-24T01:11:57.226Z,94713.00
2022-12-24T01:12:57.197Z,94719.00
2022-12-24T01:13:57.201Z,94721.00
2022-12-24T01:14:57.193Z,94723.00
2022-12-24T01:15:57.228Z,94721.00
2022-12-24T01:16:57.163Z,94723.00
2022-12-24T01:17:57.153Z,94727.00
2022-12-24T01:18:57.171Z,94729.00
2022-12-24T01:19:57.157Z,94733.00
2022-12-24T01:20:57.150Z,94737.00
2022-12-24T01:21:57.132Z,94739.00
2022-12-24T01:22:57.111Z,94739.00
2022-12-24T01:23:57.184Z,94744.00
2022-12-24T01:24:57.098Z,94752.00
2022-12-24T01:25:57.083Z,94756.00
2022-12-24T01:26:57.106Z,94748.00
2022-12-24T01:27:57.094Z,94741.00
2022-12-24T01:28:57.062Z,94739.00
2022-12-24T01:29:57.062Z,94741.00
2022-12-24T01:30:57.093Z,94741.00
2022-12-24T01:31:57.040Z,94744.00
2022-12-24T01:32:57.031Z,94744.00
2022-12-24T01:33:57.055Z,94744.00
2022-12-24T01:34:57.031Z,94741.00
2022-12-24T01:35:56.999Z,94737.00
2022-12-24T01:36:56.992Z,94737.00
2022-12-24T01:37:56.988Z,94737.00
2022-12-24T01:38:56.974Z,94744.00
2022-12-24T01:39:57.007Z,94750.00
2022-12-24T01:40:56.971Z,94750.00
2022-12-24T01:41:56.951Z,94752.00
2022-12-24T01:42:56.963Z,94752.00
2022-12-24T01:43:56.943Z,94756.00
2022-12-24T01:44:56.924Z,94758.00
2022-12-24T01:45:57.009Z,94762.00
2022-12-24T01:46:56.949Z,94764.00
2022-12-24T01:47:56.918Z,94770.00
2022-12-24T01:48:56.898Z,94768.00
2022-12-24T01:49:56.890Z,94764.00
2022-12-24T01:50:56.868Z,94764.00
2022-12-24T01:51:56.858Z,94768.00
2022-12-24T01:52:56.845Z,94772.00
2022-12-24T01:53:56.840Z,94772.00
2022-12-24T01:54:56.832Z,94770.00
2022-12-24T01:55:56.823Z,94768.00
2022-12-24T01:56:56.814Z,94770.00
2022-12-24T01:57:56.800Z,94772.00
2022-12-24T01:58:56.819Z,94772.00
2022-12-24T01:59:56.791Z,94774.00
2022-12-24T02:00:56.771Z,94770.00
2022-12-24T02:01:56.934Z,94774.00
2022-12-24T02:02:56.857Z,94774.00
2022-12-24T02:03:56.745Z,94774.00
2022-12-24T02:04:56.740Z,94774.00
2022-12-24T02:05:56.736Z,94778.00
2022-12-24T02:06:56.730Z,94782.00
2022-12-24T02:07:56.730Z,94786.00
2022-12-24T02:08:56.712Z,94786.00
2022-12-24T02:09:56.696Z,94789.00
2022-12-24T02:10:56.690Z,94788.00
2022-12-24T02:11:56.686Z,94788.00
2022-12-24T02:12:56.669Z,94786.00
2022-12-24T02:13:56.667Z,94786.00
2022-12-24T02:14:56.698Z,94789.00
2022-12-24T02:15:56.731Z,94788.00
2022-12-24T02:16:56.635Z,94788.00
2022-12-24T02:17:56.625Z,94789.00
2022-12-24T02:18:56.614Z,94795.00
2022-12-24T02:19:56.605Z,94799.00
2022-12-24T02:20:56.602Z,94803.00
2022-12-24T02:21:56.591Z,94803.00
2022-12-24T02:22:56.580Z,94799.00
2022-12-24T02:23:56.571Z,94801.00
2022-12-24T02:24:56.571Z,94801.00
2022-12-24T02:25:56.553Z,94809.00
2022-12-24T02:26:56.646Z,94813.00
2022-12-24T02:27:56.540Z,94815.00
2022-12-24T02:28:56.530Z,94815.00
2022-12-24T02:29:56.520Z,94819.00
2022-12-24T02:30:56.549Z,94825.00
2022-12-24T02:31:56.502Z,94825.00
2022-12-24T02:32:56.506Z,94827.00
2022-12-24T02:33:56.487Z,94833.00
2022-12-24T02:34:56.480Z,94831.00
2022-12-24T02:35:56.467Z,94836.00
2022-12-24T02:36:56.456Z,94838.00
2022-12-24T02:37:56.445Z,94840.00
2022-12-24T02:38:56.474Z,94840.00
2022-12-24T02:39:56.424Z,94840.00
2022-12-24T02:40:56.420Z,94846.00
2022-12-24T02:41:56.408Z,94846.00
2022-12-24T02:42:56.398Z,94848.00
2022-12-24T02:43:56.427Z,94844.00
2022-12-24T02:44:56.382Z,94842.00
2022-12-24T02:45:59.141Z,94846.00
2022-12-24T02:46:56.431Z,94842.00
2022-12-24T02:47:56.355Z,94840.00
2022-12-24T02:48:56.343Z,94836.00
2022-12-24T02:49:56.340Z,94835.00
2022-12-24T02:50:56.326Z,94829.00
2022-12-24T02:51:56.322Z,94823.00
2022-12-24T02:52:56.312Z,94825.00
2022-12-24T02:53:56.301Z,94823.00
2022-12-24T02:54:56.297Z,94823.00
2022-12-24T02:55:56.280Z,94819.00
2022-12-24T02:56:56.276Z,94817.00
2022-12-24T02:57:56.268Z,94807.00
2022-12-24T02:58:56.259Z,94809.00
2022-12-24T02:59:56.246Z,94813.00
2022-12-24T03:00:56.270Z,94817.00
2022-12-24T03:01:56.310Z,94819.00
2022-12-24T03:02:56.314Z,94821.00
2022-12-24T03:03:56.216Z,94825.00
2022-12-24T03:04:56.200Z,94827.00
2022-12-24T03:05:56.196Z,94823.00
2022-12-24T03:06:56.177Z,94815.00
2022-12-24T03:07:56.170Z,94817.00
2022-12-24T03:08:56.163Z,94825.00
2022-12-24T03:09:56.157Z,94835.00
2022-12-24T03:10:56.182Z,94829.00
2022-12-24T03:11:56.144Z,94819.00
2022-12-24T03:12:56.130Z,94815.00
2022-12-24T03:13:56.115Z,94811.00
2022-12-24T03:14:56.125Z,94815.00
2022-12-24T03:15:56.134Z,94819.00
2022-12-24T03:16:56.101Z,94819.00
2022-12-24T03:17:56.086Z,94829.00
2022-12-24T03:18:56.100Z,94829.00
2022-12-24T03:19:56.062Z,94827.00
2022-12-24T03:20:56.060Z,94831.00
2022-12-24T03:21:56.839Z,94838.00
2022-12-24T03:22:56.038Z,94836.00
2022-12-24T03:23:56.031Z,94838.00
2022-12-24T03:24:56.019Z,94842.00
2022-12-24T03:25:56.012Z,94844.00
2022-12-24T03:26:56.000Z,94842.00
2022-12-24T03:27:55.992Z,94848.00
2022-12-24T03:28:55.979Z,94854.00
2022-12-24T03:29:55.969Z,94852.00
2022-12-24T03:30:55.968Z,94858.00
2022-12-24T03:31:56.006Z,94860.00
2022-12-24T03:32:55.941Z,94860.00
2022-12-24T03:33:55.941Z,94852.00
2022-12-24T03:34:55.959Z,94852.00
2022-12-24T03:35:55.913Z,94852.00
2022-12-24T03:36:55.921Z,94850.00
2022-12-24T03:37:55.905Z,94846.00
2022-12-24T03:38:55.890Z,94838.00
2022-12-24T03:39:55.896Z,94846.00
2022-12-24T03:40:55.873Z,94862.00
2022-12-24T03:41:55.874Z,94866.00
2022-12-24T03:42:55.863Z,94860.00
2022-12-24T03:43:55.841Z,94848.00
2022-12-24T03:44:55.843Z,94852.00
2022-12-24T03:45:55.856Z,94874.00
2022-12-24T03:46:55.838Z,94870.00
2022-12-24T03:47:55.808Z,94864.00
2022-12-24T03:48:55.798Z,94862.00
2022-12-24T03:49:55.790Z,94860.00
2022-12-24T03:50:55.808Z,94866.00
2022-12-24T03:51:55.768Z,94870.00
2022-12-24T03:52:55.789Z,94872.00
2022-12-24T03:53:55.752Z,94874.00
2022-12-24T03:54:55.747Z,94870.00
2022-12-24T03:55:55.741Z,94876.00
2022-12-24T03:56:55.733Z,94878.00
2022-12-24T03:57:55.721Z,94880.00
2022-12-24T03:58:55.712Z,94880.00
2022-12-24T03:59:55.696Z,94878.00
2022-12-24T04:00:55.741Z,94882.00
2022-12-24T04:01:55.960Z,94880.00
2022-12-24T04:02:55.695Z,94880.00
2022-12-24T04:03:55.679Z,94878.00
2022-12-24T04:04:55.651Z,94889.00
2022-12-24T04:05:55.643Z,94897.00
2022-12-24T04:06:55.656Z,94899.00
2022-12-24T04:07:55.634Z,94899.00
2022-12-24T04:08:55.617Z,94897.00
2022-12-24T04:09:55.613Z,94899.00
2022-12-24T04:10:55.610Z,94899.00
2022-12-24T04:11:55.588Z,94905.00
2022-12-24T04:12:55.581Z,94899.00
2022-12-24T04:13:55.574Z,94889.00
2022-12-24T04:14:55.559Z,94883.00
2022-12-24T04:15:55.571Z,94876.00
2022-12-24T04:16:55.612Z,94878.00
2022-12-24T04:17:55.537Z,94889.00
2022-12-24T04:18:55.528Z,94899.00
2022-12-24T04:19:55.507Z,94897.00
2022-12-24T04:20:55.500Z,94901.00
2022-12-24T04:21:55.497Z,94901.00
2022-12-24T04:22:55.512Z,94903.00
2022-12-24T04:23:55.483Z,94905.00
2022-12-24T04:24:55.479Z,94899.00
2022-12-24T04:25:55.459Z,94903.00
2022-12-24T04:26:55.450Z,94903.00
2022-12-24T04:27:55.436Z,94905.00
2022-12-24T04:28:55.431Z,94913.00
2022-12-24T04:29:55.420Z,94925.00
2022-12-24T04:30:55.409Z,94936.00
2022-12-24T04:31:55.509Z,94933.00
2022-12-24T04:32:55.412Z,94940.00
2022-12-24T04:33:55.409Z,94956.00
2022-12-24T04:34:55.384Z,94962.00
2022-12-24T04:35:55.417Z,94974.00
2022-12-24T04:36:55.358Z,94980.00
2022-12-24T04:37:55.349Z,94982.00
2022-12-24T04:38:55.363Z,94978.00
2022-12-24T04:39:55.338Z,94985.00
2022-12-24T04:40:55.323Z,94956.00
2022-12-24T04:41:55.320Z,94991.00
2022-12-24T04:42:55.366Z,94991.00
2022-12-24T04:43:55.355Z,94983.00
2022-12-24T04:44:55.305Z,94989.00
2022-12-24T04:45:55.396Z,94991.00
2022-12-24T04:46:55.297Z,94993.00
2022-12-24T04:47:55.268Z,94989.00
2022-12-24T04:48:55.276Z,95001.00
2022-12-24T04:49:55.234Z,95017.00
2022-12-24T04:50:55.227Z,94997.00
2022-12-24T04:51:55.225Z,95029.00
2022-12-24T04:52:55.207Z,95029.00
2022-12-24T04:54:55.224Z,95003.00
2022-12-24T04:55:55.191Z,95009.00
2022-12-24T04:56:55.180Z,95023.00
2022-12-24T04:57:55.172Z,95054.00
2022-12-24T04:58:55.151Z,95013.00
2022-12-24T04:59:55.150Z,95015.00
2022-12-24T05:00:55.160Z,94997.00
2022-12-24T05:01:55.232Z,95011.00
2022-12-24T05:02:55.307Z,95011.00
2022-12-24T05:03:55.378Z,95021.00
2022-12-24T05:04:55.097Z,94989.00
2022-12-24T05:06:01.169Z,95003.00
2022-12-24T05:06:55.076Z,95003.00
2022-12-24T05:07:55.085Z,95015.00
2022-12-24T05:08:55.075Z,95011.00
2022-12-24T05:09:55.054Z,95017.00
2022-12-24T05:10:55.067Z,95007.00
2022-12-24T05:11:55.032Z,95005.00
2022-12-24T05:12:55.054Z,95015.00
2022-12-24T05:13:55.045Z,95013.00
2022-12-24T05:14:55.009Z,95030.00
2022-12-24T05:15:54.999Z,95023.00
2022-12-24T05:16:55.077Z,95027.00
2022-12-24T05:17:54.978Z,95021.00
2022-12-24T05:18:55.001Z,95036.00
2022-12-24T05:19:54.967Z,95023.00
2022-12-24T05:20:54.957Z,95011.00
2022-12-24T05:21:54.957Z,95013.00
2022-12-24T05:22:54.938Z,95001.00
2022-12-24T05:23:54.937Z,95001.00
2022-12-24T05:24:54.918Z,94999.00
2022-12-24T05:25:54.909Z,94993.00
2022-12-24T05:26:54.952Z,94972.00
2022-12-24T05:27:54.891Z,94997.00
2022-12-24T05:28:54.897Z,95015.00
2022-12-24T09:43:52.561Z,95322.00
2022-12-24T11:09:51.771Z,95281.00
2022-12-24T11:44:51.464Z,95270.00
2022-12-24T11:45:51.448Z,95270.00
2022-12-24T11:46:51.512Z,95266.00
2022-12-24T11:47:51.432Z,95268.00
2022-12-24T11:48:51.421Z,95266.00
2022-12-24T11:49:51.414Z,95264.00
2022-12-24T11:50:51.431Z,95266.00
2022-12-24T11:51:51.391Z,95266.00
2022-12-24T11:52:51.386Z,95270.00
2022-12-24T11:53:51.385Z,95266.00
2022-12-24T11:54:51.395Z,95268.00
2022-12-24T11:55:51.358Z,95270.00
2022-12-24T11:57:51.358Z,95266.00
2022-12-24T11:58:51.331Z,95264.00
2022-12-24T11:59:51.329Z,95260.00
2022-12-24T12:00:51.323Z,95260.00
2022-12-24T12:01:51.345Z,95254.00
2022-12-24T12:02:51.335Z,95250.00
2022-12-24T12:03:51.357Z,95252.00
2022-12-24T12:04:51.276Z,95252.00
2022-12-24T12:05:51.283Z,95254.00
2022-12-24T12:06:51.284Z,95252.00
2022-12-24T12:07:51.247Z,95254.00
2022-12-24T12:08:51.242Z,95252.00
2022-12-24T12:09:51.239Z,95250.00
2022-12-24T12:10:51.224Z,95248.00
2022-12-24T12:11:51.222Z,95248.00
2022-12-24T12:12:51.201Z,95242.00
2022-12-24T12:13:51.198Z,95244.00
2022-12-24T12:14:51.195Z,95242.00
2022-12-24T12:15:51.234Z,95246.00
2022-12-24T12:16:51.205Z,95246.00
2022-12-24T12:17:51.156Z,95248.00
2022-12-24T12:18:51.158Z,95250.00
2022-12-24T12:19:51.147Z,95252.00
2022-12-24T12:20:51.131Z,95256.00
2022-12-24T12:21:51.119Z,95256.00
2022-12-24T12:22:51.179Z,95258.00
2022-12-24T12:23:51.106Z,95254.00
2022-12-24T12:24:51.097Z,95256.00
2022-12-24T12:25:51.079Z,95254.00
2022-12-24T12:26:51.070Z,95252.00
2022-12-24T12:27:51.078Z,95256.00
2022-12-24T12:28:51.100Z,95256.00
2022-12-24T12:29:51.052Z,95258.00
2022-12-24T12:30:51.041Z,95262.00
2022-12-24T12:31:51.104Z,95264.00
2022-12-24T12:32:51.130Z,95266.00
2022-12-24T12:33:51.026Z,95266.00
2022-12-24T12:34:51.007Z,95268.00
2022-12-24T12:35:51.008Z,95268.00
2022-12-24T12:36:50.979Z,95266.00
2022-12-24T12:37:50.984Z,95270.00
2022-12-24T12:38:51.019Z,95270.00
2022-12-24T12:39:50.974Z,95270.00
2022-12-24T12:40:50.960Z,95271.00
2022-12-24T12:41:50.942Z,95271.00
2022-12-24T12:42:50.932Z,95271.00
2022-12-24T12:43:50.921Z,95271.00
2022-12-24T12:44:50.922Z,95271.00
2022-12-24T12:45:50.905Z,95271.00
2022-12-24T12:46:50.974Z,95271.00
2022-12-24T12:47:50.918Z,95268.00
2022-12-24T12:48:52.041Z,95266.00
2022-12-24T12:49:50.894Z,95260.00
2022-12-24T12:50:50.860Z,95258.00
2022-12-24T12:51:50.850Z,95256.00
2022-12-24T12:52:50.906Z,95256.00
2022-12-24T12:53:50.827Z,95256.00
2022-12-24T12:54:50.855Z,95258.00
2022-12-24T12:55:50.822Z,95260.00
2022-12-24T12:56:50.800Z,95258.00
2022-12-24T12:57:50.792Z,95258.00
2022-12-24T12:58:50.788Z,95256.00
2022-12-24T12:59:50.782Z,95260.00
2022-12-24T13:00:50.799Z,95262.00
2022-12-24T13:01:50.998Z,95262.00
2022-12-24T13:02:50.881Z,95262.00
2022-12-24T13:03:50.744Z,95262.00
2022-12-24T13:04:50.738Z,95260.00
2022-12-24T13:05:50.724Z,95262.00
2022-12-24T13:06:50.785Z,95262.00
2022-12-24T13:07:50.709Z,95262.00
2022-12-24T13:08:50.694Z,95268.00
2022-12-24T13:09:50.689Z,95268.00
2022-12-24T13:10:50.693Z,95270.00
2022-12-24T13:11:50.705Z,95271.00
2022-12-24T13:12:50.663Z,95271.00
2022-12-24T13:13:50.650Z,95271.00
2022-12-24T13:14:50.639Z,95275.00
2022-12-24T13:15:50.683Z,95273.00
2022-12-24T13:16:50.760Z,95273.00
2022-12-24T13:17:50.625Z,95277.00
2022-12-24T13:18:50.605Z,95277.00
2022-12-24T13:19:50.606Z,95279.00
2022-12-24T13:20:50.592Z,95281.00
2022-12-24T13:21:50.593Z,95285.00
2022-12-24T13:22:50.610Z,95289.00
2022-12-24T13:23:50.563Z,95289.00
2022-12-24T13:24:51.989Z,95287.00
2022-12-24T13:25:50.552Z,95289.00
2022-12-24T13:26:50.555Z,95285.00
2022-12-24T13:27:50.526Z,95289.00
2022-12-24T13:28:50.552Z,95289.00
2022-12-24T13:29:50.513Z,95291.00
2022-12-24T13:30:50.509Z,95293.00
2022-12-24T13:31:50.566Z,95295.00
2022-12-24T13:32:50.518Z,95297.00
2022-12-24T13:33:50.494Z,95299.00
2022-12-24T13:34:50.485Z,95299.00
2022-12-24T13:35:50.453Z,95301.00
2022-12-24T13:36:50.471Z,95301.00
2022-12-24T13:37:50.439Z,95301.00
2022-12-24T13:38:50.434Z,95301.00
2022-12-24T13:39:50.418Z,95305.00
2022-12-24T13:40:50.416Z,95307.00
2022-12-24T13:41:50.409Z,95305.00
2022-12-24T13:42:50.408Z,95307.00
2022-12-24T13:43:50.379Z,95305.00
2022-12-24T13:44:50.415Z,95305.00
2022-12-24T13:45:50.402Z,95305.00
2022-12-24T13:46:50.371Z,95301.00
2022-12-24T13:47:50.350Z,95301.00
2022-12-24T13:48:50.337Z,95299.00
2022-12-24T13:49:50.334Z,95301.00
2022-12-24T13:50:50.323Z,95303.00
2022-12-24T13:51:50.309Z,95303.00
2022-12-24T13:52:50.301Z,95301.00
2022-12-24T13:53:50.291Z,95303.00
2022-12-24T13:54:50.279Z,95303.00
2022-12-24T13:55:50.287Z,95303.00
2022-12-24T13:56:50.267Z,95307.00
2022-12-24T13:57:50.252Z,95307.00
2022-12-24T13:58:50.282Z,95309.00
2022-12-24T14:32:49.928Z,95307.00
2022-12-24T14:33:49.928Z,95303.00
2022-12-24T14:34:49.920Z,95301.00
2022-12-24T14:35:49.910Z,95297.00
2022-12-24T14:36:49.906Z,95299.00
2022-12-24T14:37:49.885Z,95299.00
2022-12-24T14:38:49.889Z,95305.00
2022-12-24T14:39:49.870Z,95305.00
2022-12-24T14:40:49.859Z,95307.00
2022-12-24T14:41:49.849Z,95309.00
2022-12-24T14:42:49.837Z,95309.00
2022-12-24T14:43:49.833Z,95311.00
2022-12-24T14:44:49.821Z,95303.00
2022-12-24T14:45:49.871Z,95311.00
2022-12-24T14:46:49.827Z,95315.00
2022-12-24T14:47:49.789Z,95317.00
2022-12-24T14:48:49.784Z,95318.00
2022-12-24T14:49:49.776Z,95317.00
2022-12-24T14:50:49.795Z,95320.00
2022-12-24T14:51:49.768Z,95318.00
2022-12-24T14:53:08.198Z,95318.00
2022-12-24T14:53:49.799Z,95322.00
2022-12-24T14:54:49.726Z,95324.00
2022-12-24T14:55:49.727Z,95322.00
2022-12-24T14:56:49.749Z,95326.00
2022-12-24T14:57:49.705Z,95328.00
2022-12-24T14:58:49.786Z,95328.00
2022-12-24T14:59:49.689Z,95332.00
2022-12-24T15:00:49.783Z,95334.00
2022-12-24T15:01:49.815Z,95334.00
2022-12-24T15:02:49.865Z,95334.00
2022-12-24T15:03:49.708Z,95336.00
2022-12-24T15:04:49.673Z,95336.00
2022-12-24T15:05:49.664Z,95334.00
2022-12-24T15:06:49.634Z,95330.00
2022-12-24T15:07:49.651Z,95328.00
2022-12-24T15:08:49.634Z,95326.00
2022-12-24T15:09:49.592Z,95326.00
2022-12-24T15:10:49.646Z,95330.00
2022-12-24T15:11:49.613Z,95326.00
2022-12-24T15:12:49.572Z,95328.00
2022-12-24T15:13:49.571Z,95326.00
2022-12-24T15:14:49.550Z,95330.00
2022-12-24T15:15:52.670Z,95332.00
2022-12-24T15:16:49.671Z,95328.00
2022-12-24T15:17:49.518Z,95328.00
2022-12-24T15:18:49.538Z,95332.00
2022-12-24T15:19:49.541Z,95332.00
2022-12-24T15:20:49.497Z,95334.00
2022-12-24T15:21:49.507Z,95338.00
2022-12-24T15:22:49.471Z,95336.00
2022-12-24T15:23:49.469Z,95334.00
2022-12-24T15:24:49.454Z,95338.00
2022-12-24T15:25:49.450Z,95340.00
2022-12-24T15:26:49.458Z,95342.00
2022-12-24T15:27:49.431Z,95344.00
2022-12-24T15:28:49.428Z,95342.00
2022-12-24T15:29:49.423Z,95342.00
2022-12-24T15:30:49.485Z,95340.00
2022-12-24T15:31:49.391Z,95342.00
2022-12-24T15:32:49.389Z,95344.00
2022-12-24T15:33:49.378Z,95344.00
2022-12-24T15:34:49.463Z,95346.00
2022-12-24T15:35:49.383Z,95344.00
2022-12-24T15:36:49.351Z,95344.00
2022-12-24T15:37:49.340Z,95340.00
2022-12-24T15:38:49.330Z,95336.00
2022-12-24T15:39:49.320Z,95336.00
2022-12-24T15:40:49.327Z,95338.00
2022-12-24T15:41:49.305Z,95336.00
2022-12-24T15:42:49.298Z,95332.00
2022-12-24T15:43:49.295Z,95336.00
2022-12-24T15:44:49.275Z,95334.00
2022-12-24T15:45:49.313Z,95332.00
2022-12-24T15:46:49.266Z,95338.00
2022-12-24T15:47:49.256Z,95340.00
2022-12-24T15:48:49.242Z,95342.00
2022-12-24T15:49:49.359Z,95344.00
2022-12-24T15:50:49.255Z,95348.00
2022-12-24T15:51:49.225Z,95350.00
2022-12-24T15:53:20.753Z,95352.00
2022-12-24T15:53:49.203Z,95352.00
2022-12-24T15:54:55.392Z,95356.00
2022-12-24T15:55:49.183Z,95352.00
2022-12-24T15:56:49.180Z,95352.00
2022-12-24T15:57:49.165Z,95350.00
2022-12-24T15:58:49.150Z,95352.00
2022-12-24T15:59:49.154Z,95352.00
2022-12-24T16:00:49.141Z,95354.00
2022-12-24T16:01:49.215Z,95354.00
2022-12-24T16:02:49.371Z,95352.00
2022-12-24T16:03:49.230Z,95354.00
2022-12-24T16:04:49.102Z,95356.00
2022-12-24T16:05:49.093Z,95354.00
2022-12-24T16:06:49.188Z,95352.00
2022-12-24T16:07:49.086Z,95352.00
2022-12-24T16:08:49.607Z,95354.00
2022-12-24T16:09:49.069Z,95354.00
2022-12-24T16:10:49.062Z,95354.00
2022-12-24T16:11:49.046Z,95352.00
2022-12-24T16:12:49.046Z,95350.00
2022-12-24T16:13:49.039Z,95350.00
2022-12-24T16:14:49.011Z,95346.00
2022-12-24T16:15:49.093Z,95346.00
2022-12-24T16:16:48.991Z,95346.00
2022-12-24T16:17:48.986Z,95348.00
2022-12-24T16:18:48.976Z,95350.00
2022-12-24T16:19:48.967Z,95350.00
2022-12-24T16:20:48.986Z,95352.00
2022-12-24T16:21:48.944Z,95354.00
2022-12-24T16:22:48.956Z,95360.00
2022-12-24T16:23:48.929Z,95362.00
2022-12-24T16:24:48.920Z,95360.00
2022-12-24T16:25:48.914Z,95362.00
2022-12-24T16:26:48.911Z,95362.00
2022-12-24T16:27:48.894Z,95364.00
2022-12-24T16:28:47.884Z,95362.00
2022-12-24T16:29:48.870Z,95365.00
2022-12-24T16:30:48.897Z,95364.00
2022-12-24T16:31:48.859Z,95362.00
2022-12-24T16:32:48.846Z,95360.00
2022-12-24T16:33:48.839Z,95358.00
2022-12-24T16:34:48.823Z,95358.00
2022-12-24T16:35:48.817Z,95358.00
2022-12-24T16:36:48.803Z,95362.00
2022-12-24T16:37:48.791Z,95362.00
2022-12-24T16:38:48.819Z,95358.00
2022-12-24T16:39:48.774Z,95362.00
2022-12-24T16:40:48.784Z,95362.00
2022-12-24T16:41:48.759Z,95362.00
2022-12-24T16:42:48.746Z,95364.00
2022-12-24T16:43:48.737Z,95364.00
2022-12-24T16:44:48.729Z,95362.00
2022-12-24T16:45:48.716Z,95360.00
2022-12-24T16:46:48.766Z,95358.00
2022-12-24T16:47:48.700Z,95360.00
2022-12-24T16:48:48.689Z,95362.00
2022-12-24T16:49:48.751Z,95362.00
2022-12-24T16:50:48.682Z,95364.00
2022-12-24T16:51:48.674Z,95369.00
2022-12-24T16:52:48.653Z,95365.00
2022-12-24T16:53:48.647Z,95369.00
2022-12-24T16:54:48.660Z,95369.00
2022-12-24T16:55:48.635Z,95365.00
2022-12-24T16:56:48.612Z,95367.00
2022-12-24T16:57:48.617Z,95364.00
2022-12-24T16:58:48.609Z,95364.00
2022-12-24T16:59:48.588Z,95362.00
2022-12-24T17:00:48.598Z,95365.00
2022-12-24T17:01:48.742Z,95364.00
2022-12-24T17:02:48.802Z,95367.00
2022-12-24T17:03:48.683Z,95369.00
2022-12-24T17:04:48.539Z,95367.00
2022-12-24T17:05:48.537Z,95364.00
2022-12-24T17:06:48.559Z,95365.00
2022-12-24T17:07:48.519Z,95362.00
2022-12-24T17:08:48.512Z,95364.00
2022-12-24T17:09:48.522Z,95365.00
2022-12-24T17:10:48.516Z,95365.00
2022-12-24T17:11:48.475Z,95362.00
2022-12-24T17:12:48.468Z,95365.00
2022-12-24T17:13:48.461Z,95362.00
2022-12-24T17:14:48.452Z,95362.00
2022-12-24T17:15:48.520Z,95362.00
2022-12-24T17:16:48.448Z,95364.00
2022-12-24T17:17:48.431Z,95367.00
2022-12-24T17:18:48.410Z,95367.00
2022-12-24T17:19:48.402Z,95369.00
2022-12-24T17:20:48.391Z,95371.00
2022-12-24T17:21:48.387Z,95371.00
2022-12-24T17:22:48.379Z,95373.00
2022-12-24T17:23:48.368Z,95371.00
2022-12-24T17:24:48.367Z,95369.00
2022-12-24T17:25:48.345Z,95373.00
2022-12-24T17:26:48.362Z,95371.00
2022-12-24T17:27:48.325Z,95373.00
2022-12-24T17:28:48.320Z,95373.00
2022-12-24T17:29:48.309Z,95375.00
2022-12-24T17:30:48.341Z,95375.00
2022-12-24T17:31:48.302Z,95373.00
2022-12-24T17:32:48.288Z,95371.00
2022-12-24T17:33:48.272Z,95369.00
2022-12-24T17:34:48.261Z,95373.00
2022-12-24T17:35:48.257Z,95371.00
2022-12-24T17:36:48.256Z,95375.00
2022-12-24T17:37:48.240Z,95381.00
2022-12-24T17:38:48.227Z,95385.00
2022-12-24T17:39:48.225Z,95385.00
2022-12-24T17:40:48.210Z,95385.00
2022-12-24T17:41:48.197Z,95385.00
2022-12-24T17:42:48.209Z,95387.00
2022-12-24T17:43:48.222Z,95389.00
2022-12-24T17:44:48.171Z,95389.00
2022-12-24T17:45:48.161Z,95389.00
2022-12-24T17:46:48.210Z,95391.00
2022-12-24T17:47:48.166Z,95393.00
2022-12-24T17:48:48.136Z,95389.00
2022-12-24T17:49:48.144Z,95389.00
2022-12-24T17:50:48.197Z,95385.00
2022-12-24T17:51:48.639Z,95381.00
2022-12-24T17:52:48.107Z,95379.00
2022-12-24T17:53:48.091Z,95377.00
2022-12-24T17:54:48.080Z,95373.00
2022-12-24T17:55:48.076Z,95371.00
2022-12-24T17:56:48.072Z,95369.00
2022-12-24T17:57:48.059Z,95367.00
2022-12-24T17:58:48.075Z,95365.00
2022-12-24T17:59:48.040Z,95364.00
2022-12-24T18:00:48.032Z,95362.00
2022-12-24T18:01:48.212Z,95362.00
2022-12-24T18:02:48.685Z,95364.00
2022-12-24T18:03:48.083Z,95362.00
2022-12-24T18:04:47.987Z,95364.00
2022-12-24T18:05:48.005Z,95367.00
2022-12-24T18:06:49.746Z,95365.00
2022-12-24T18:07:47.966Z,95365.00
2022-12-24T18:08:47.970Z,95365.00
2022-12-24T18:09:47.948Z,95367.00
2022-12-24T18:10:47.937Z,95367.00
2022-12-24T18:11:47.926Z,95371.00
2022-12-24T18:12:47.907Z,95373.00
2022-12-24T18:13:47.918Z,95377.00
2022-12-24T18:14:47.925Z,95383.00
2022-12-24T18:15:47.905Z,95381.00
2022-12-24T18:16:48.047Z,95383.00
2022-12-24T18:17:47.865Z,95383.00
2022-12-24T18:18:47.853Z,95379.00
2022-12-24T18:19:47.861Z,95379.00
2022-12-24T18:20:47.835Z,95377.00
2022-12-24T18:21:47.824Z,95377.00
2022-12-24T18:22:47.829Z,95375.00
2022-12-24T18:23:47.829Z,95379.00
2022-12-24T18:24:47.804Z,95379.00
2022-12-24T18:25:47.799Z,95377.00
2022-12-24T18:26:47.779Z,95375.00
2022-12-24T18:27:48.668Z,95375.00
2022-12-24T18:28:47.764Z,95375.00
2022-12-24T18:29:47.761Z,95375.00
2022-12-24T18:30:47.773Z,95373.00
2022-12-24T18:31:47.799Z,95371.00
2022-12-24T18:32:47.727Z,95373.00
2022-12-24T18:33:47.716Z,95371.00
2022-12-24T18:34:47.720Z,95371.00
2022-12-24T18:35:47.699Z,95371.00
2022-12-24T18:36:54.568Z,95373.00
2022-12-24T18:37:47.686Z,95371.00
2022-12-24T18:38:47.677Z,95371.00
2022-12-24T18:39:47.657Z,95373.00
2022-12-24T18:40:47.645Z,95373.00
2022-12-24T18:41:47.637Z,95377.00
2022-12-24T18:42:47.629Z,95377.00
2022-12-24T18:43:47.634Z,95377.00
2022-12-24T18:44:47.612Z,95381.00
2022-12-24T18:45:47.607Z,95383.00
2022-12-24T18:46:47.666Z,95385.00
2022-12-24T18:47:47.585Z,95385.00
2022-12-24T18:48:47.593Z,95387.00
2022-12-24T18:49:47.587Z,95391.00
2022-12-24T18:50:47.554Z,95387.00
2022-12-24T18:51:47.559Z,95389.00
2022-12-24T18:52:47.544Z,95389.00
2022-12-24T18:53:47.544Z,95391.00
2022-12-24T18:54:47.512Z,95391.00
2022-12-24T18:55:47.515Z,95389.00
2022-12-24T18:56:47.501Z,95389.00
2022-12-24T18:57:47.491Z,95389.00
2022-12-24T18:58:47.501Z,95391.00
2022-12-24T18:59:47.481Z,95393.00
2022-12-24T19:00:47.511Z,95391.00
2022-12-24T19:01:47.742Z,95391.00
2022-12-24T19:02:47.620Z,95393.00
2022-12-24T19:03:47.443Z,95393.00
2022-12-24T19:04:47.485Z,95393.00
2022-12-24T19:05:47.419Z,95397.00
2022-12-24T19:06:52.914Z,95395.00
2022-12-24T19:07:47.400Z,95395.00
2022-12-24T19:09:02.853Z,95399.00
2022-12-24T19:09:47.390Z,95399.00
2022-12-24T19:10:47.388Z,95403.00
2022-12-24T19:11:47.362Z,95403.00
2022-12-24T19:12:47.350Z,95411.00
2022-12-24T19:13:47.344Z,95415.00
2022-12-24T19:14:47.340Z,95417.00
2022-12-24T19:15:47.321Z,95415.00
2022-12-24T19:16:47.406Z,95415.00
2022-12-24T19:17:47.305Z,95418.00
2022-12-24T19:18:47.340Z,95420.00
2022-12-24T19:19:47.289Z,95420.00
2022-12-24T19:20:47.285Z,95420.00
2022-12-24T19:21:47.270Z,95418.00
2022-12-24T19:22:47.258Z,95420.00
2022-12-24T19:23:47.286Z,95418.00
2022-12-24T19:24:47.235Z,95418.00
2022-12-24T19:25:47.232Z,95420.00
2022-12-24T19:26:47.219Z,95418.00